sensor_id;sensor_type;location;lat;lon;timestamp;P1;durP1;ratioP1;P2;durP2;ratioP2
21480;SDS011;10902;48.158;8.634;2023-06-24T00:02:18;13.65;;;10.23;;
21480;SDS011;10902;48.158;8.634;2023-06-24T00:05:09;12.05;;;10.10;;
21480;SDS011;10902;48.158;8.634;2023-06-24T00:07:55;11.63;;;9.73;;
21480;SDS011;10902;48.158;8.634;2023-06-24T00:10:43;11.93;;;10.52;;
21480;SDS011;10902;48.158;8.634;2023-06-24T00:13:34;11.90;;;10.05;;
21480;SDS011;10902;48.158;8.634;2023-06-24T00:16:25;13.35;;;9.50;;
21480;SDS011;10902;48.158;8.634;2023-06-24T00:19:12;13.02;;;10.18;;
21480;SDS011;10902;48.158;8.634;2023-06-24T00:21:58;14.77;;;11.20;;
21480;SDS011;10902;48.158;8.634;2023-06-24T00:24:46;12.95;;;10.65;;
21480;SDS011;10902;48.158;8.634;2023-06-24T00:27:32;13.68;;;10.63;;
21480;SDS011;10902;48.158;8.634;2023-06-24T00:30:18;13.50;;;10.52;;
21480;SDS011;10902;48.158;8.634;2023-06-24T00:33:04;13.38;;;10.93;;
21480;SDS011;10902;48.158;8.634;2023-06-24T00:35:54;15.40;;;11.15;;
21480;SDS011;10902;48.158;8.634;2023-06-24T00:38:42;15.88;;;11.38;;
21480;SDS011;10902;48.158;8.634;2023-06-24T00:41:28;15.52;;;12.48;;
21480;SDS011;10902;48.158;8.634;2023-06-24T00:44:23;14.07;;;11.40;;
21480;SDS011;10902;48.158;8.634;2023-06-24T00:47:09;12.88;;;10.75;;
21480;SDS011;10902;48.158;8.634;2023-06-24T00:49:55;14.80;;;10.68;;
21480;SDS011;10902;48.158;8.634;2023-06-24T00:52:42;15.38;;;11.93;;
21480;SDS011;10902;48.158;8.634;2023-06-24T00:55:28;15.82;;;11.38;;
21480;SDS011;10902;48.158;8.634;2023-06-24T00:58:14;16.52;;;12.45;;
21480;SDS011;10902;48.158;8.634;2023-06-24T01:01:01;14.60;;;11.73;;
21480;SDS011;10902;48.158;8.634;2023-06-24T01:03:47;15.73;;;12.65;;
21480;SDS011;10902;48.158;8.634;2023-06-24T01:06:34;16.35;;;13.13;;
21480;SDS011;10902;48.158;8.634;2023-06-24T01:09:21;16.25;;;13.10;;
21480;SDS011;10902;48.158;8.634;2023-06-24T01:12:08;17.08;;;13.25;;
21480;SDS011;10902;48.158;8.634;2023-06-24T01:14:54;15.82;;;12.30;;
21480;SDS011;10902;48.158;8.634;2023-06-24T01:23:55;13.95;;;11.50;;
21480;SDS011;10902;48.158;8.634;2023-06-24T01:30:14;15.10;;;12.00;;
21480;SDS011;10902;48.158;8.634;2023-06-24T01:33:25;14.40;;;11.88;;
21480;SDS011;10902;48.158;8.634;2023-06-24T01:36:18;15.38;;;11.63;;
21480;SDS011;10902;48.158;8.634;2023-06-24T01:39:07;15.18;;;11.65;;
21480;SDS011;10902;48.158;8.634;2023-06-24T01:41:57;12.38;;;10.70;;
21480;SDS011;10902;48.158;8.634;2023-06-24T01:44:49;14.88;;;11.82;;
21480;SDS011;10902;48.158;8.634;2023-06-24T01:47:36;14.98;;;11.15;;
21480;SDS011;10902;48.158;8.634;2023-06-24T01:50:25;14.45;;;11.32;;
21480;SDS011;10902;48.158;8.634;2023-06-24T01:53:14;14.75;;;11.90;;
21480;SDS011;10902;48.158;8.634;2023-06-24T01:56:02;17.45;;;12.18;;
21480;SDS011;10902;48.158;8.634;2023-06-24T01:58:52;13.85;;;11.90;;
21480;SDS011;10902;48.158;8.634;2023-06-24T02:01:42;15.07;;;12.18;;
21480;SDS011;10902;48.158;8.634;2023-06-24T02:04:29;15.85;;;12.48;;
21480;SDS011;10902;48.158;8.634;2023-06-24T02:07:17;16.20;;;12.63;;
21480;SDS011;10902;48.158;8.634;2023-06-24T02:10:05;16.85;;;12.50;;
21480;SDS011;10902;48.158;8.634;2023-06-24T02:12:53;16.17;;;12.63;;
21480;SDS011;10902;48.158;8.634;2023-06-24T02:15:41;15.52;;;12.93;;
21480;SDS011;10902;48.158;8.634;2023-06-24T02:18:30;16.60;;;13.57;;
21480;SDS011;10902;48.158;8.634;2023-06-24T02:21:17;17.58;;;13.52;;
21480;SDS011;10902;48.158;8.634;2023-06-24T02:24:05;18.77;;;14.55;;
21480;SDS011;10902;48.158;8.634;2023-06-24T02:26:51;19.10;;;14.57;;
21480;SDS011;10902;48.158;8.634;2023-06-24T02:29:39;19.15;;;15.40;;
21480;SDS011;10902;48.158;8.634;2023-06-24T02:32:27;20.02;;;15.38;;
21480;SDS011;10902;48.158;8.634;2023-06-24T02:35:13;18.50;;;14.55;;
21480;SDS011;10902;48.158;8.634;2023-06-24T02:37:59;20.40;;;14.95;;
21480;SDS011;10902;48.158;8.634;2023-06-24T02:40:45;16.52;;;13.07;;
21480;SDS011;10902;48.158;8.634;2023-06-24T02:43:32;15.30;;;12.23;;
21480;SDS011;10902;48.158;8.634;2023-06-24T02:46:20;16.98;;;12.75;;
21480;SDS011;10902;48.158;8.634;2023-06-24T02:49:07;18.45;;;14.07;;
21480;SDS011;10902;48.158;8.634;2023-06-24T02:51:54;16.70;;;13.23;;
21480;SDS011;10902;48.158;8.634;2023-06-24T02:54:40;18.23;;;14.60;;
21480;SDS011;10902;48.158;8.634;2023-06-24T02:57:27;17.67;;;13.93;;
21480;SDS011;10902;48.158;8.634;2023-06-24T03:00:14;19.35;;;13.73;;
21480;SDS011;10902;48.158;8.634;2023-06-24T03:03:04;16.48;;;13.55;;
21480;SDS011;10902;48.158;8.634;2023-06-24T03:05:52;18.10;;;14.13;;
21480;SDS011;10902;48.158;8.634;2023-06-24T03:08:39;18.70;;;14.20;;
21480;SDS011;10902;48.158;8.634;2023-06-24T03:11:26;16.20;;;13.68;;
21480;SDS011;10902;48.158;8.634;2023-06-24T03:14:13;19.83;;;14.20;;
21480;SDS011;10902;48.158;8.634;2023-06-24T03:16:59;16.83;;;13.52;;
21480;SDS011;10902;48.158;8.634;2023-06-24T03:19:48;20.38;;;14.25;;
21480;SDS011;10902;48.158;8.634;2023-06-24T03:22:37;18.02;;;14.43;;
21480;SDS011;10902;48.158;8.634;2023-06-24T03:25:23;20.23;;;14.27;;
21480;SDS011;10902;48.158;8.634;2023-06-24T03:28:09;17.85;;;13.88;;
21480;SDS011;10902;48.158;8.634;2023-06-24T03:30:55;18.38;;;14.68;;
21480;SDS011;10902;48.158;8.634;2023-06-24T03:33:41;18.13;;;13.93;;
21480;SDS011;10902;48.158;8.634;2023-06-24T03:36:30;18.20;;;14.55;;
21480;SDS011;10902;48.158;8.634;2023-06-24T03:39:16;18.55;;;14.77;;
21480;SDS011;10902;48.158;8.634;2023-06-24T03:42:01;17.77;;;14.13;;
21480;SDS011;10902;48.158;8.634;2023-06-24T03:44:48;20.35;;;14.40;;
21480;SDS011;10902;48.158;8.634;2023-06-24T03:47:51;19.90;;;15.68;;
21480;SDS011;10902;48.158;8.634;2023-06-24T03:50:37;19.45;;;15.23;;
21480;SDS011;10902;48.158;8.634;2023-06-24T03:53:26;19.63;;;15.45;;
21480;SDS011;10902;48.158;8.634;2023-06-24T03:56:12;20.60;;;15.77;;
21480;SDS011;10902;48.158;8.634;2023-06-24T03:58:58;20.50;;;14.85;;
21480;SDS011;10902;48.158;8.634;2023-06-24T04:01:44;21.38;;;15.63;;
21480;SDS011;10902;48.158;8.634;2023-06-24T04:04:30;17.63;;;14.00;;
21480;SDS011;10902;48.158;8.634;2023-06-24T04:07:16;19.45;;;14.38;;
21480;SDS011;10902;48.158;8.634;2023-06-24T04:10:12;17.52;;;14.65;;
21480;SDS011;10902;48.158;8.634;2023-06-24T04:12:58;19.95;;;14.00;;
21480;SDS011;10902;48.158;8.634;2023-06-24T04:15:46;17.95;;;13.75;;
21480;SDS011;10902;48.158;8.634;2023-06-24T04:18:32;16.92;;;13.68;;
21480;SDS011;10902;48.158;8.634;2023-06-24T04:21:19;16.67;;;13.05;;
21480;SDS011;10902;48.158;8.634;2023-06-24T04:24:05;16.52;;;12.55;;
21480;SDS011;10902;48.158;8.634;2023-06-24T04:26:51;17.67;;;13.15;;
21480;SDS011;10902;48.158;8.634;2023-06-24T04:29:36;16.33;;;12.93;;
21480;SDS011;10902;48.158;8.634;2023-06-24T04:32:22;15.00;;;12.70;;
21480;SDS011;10902;48.158;8.634;2023-06-24T04:35:08;18.90;;;12.98;;
21480;SDS011;10902;48.158;8.634;2023-06-24T04:37:54;17.05;;;13.55;;
21480;SDS011;10902;48.158;8.634;2023-06-24T04:40:40;17.15;;;13.00;;
21480;SDS011;10902;48.158;8.634;2023-06-24T04:43:26;16.02;;;11.75;;
21480;SDS011;10902;48.158;8.634;2023-06-24T04:46:15;15.93;;;12.30;;
21480;SDS011;10902;48.158;8.634;2023-06-24T04:49:01;16.30;;;12.25;;
21480;SDS011;10902;48.158;8.634;2023-06-24T04:51:50;16.05;;;11.68;;
21480;SDS011;10902;48.158;8.634;2023-06-24T04:54:36;15.57;;;11.82;;
21480;SDS011;10902;48.158;8.634;2023-06-24T04:57:23;15.68;;;12.32;;
21480;SDS011;10902;48.158;8.634;2023-06-24T05:00:11;15.40;;;12.05;;
21480;SDS011;10902;48.158;8.634;2023-06-24T05:02:57;14.32;;;12.32;;
21480;SDS011;10902;48.158;8.634;2023-06-24T05:05:48;15.40;;;12.20;;
21480;SDS011;10902;48.158;8.634;2023-06-24T05:08:34;15.75;;;12.15;;
21480;SDS011;10902;48.158;8.634;2023-06-24T05:11:20;17.30;;;11.40;;
21480;SDS011;10902;48.158;8.634;2023-06-24T05:14:06;15.57;;;12.18;;
21480;SDS011;10902;48.158;8.634;2023-06-24T05:16:55;13.10;;;10.85;;
21480;SDS011;10902;48.158;8.634;2023-06-24T05:19:44;12.35;;;9.80;;
21480;SDS011;10902;48.158;8.634;2023-06-24T05:22:33;13.00;;;10.45;;
21480;SDS011;10902;48.158;8.634;2023-06-24T05:25:19;13.70;;;11.38;;
21480;SDS011;10902;48.158;8.634;2023-06-24T05:28:05;11.85;;;10.30;;
21480;SDS011;10902;48.158;8.634;2023-06-24T05:30:51;13.10;;;9.55;;
21480;SDS011;10902;48.158;8.634;2023-06-24T05:33:37;10.77;;;9.13;;
21480;SDS011;10902;48.158;8.634;2023-06-24T05:36:23;11.68;;;9.40;;
21480;SDS011;10902;48.158;8.634;2023-06-24T05:39:12;13.43;;;9.07;;
21480;SDS011;10902;48.158;8.634;2023-06-24T05:41:58;11.02;;;8.77;;
21480;SDS011;10902;48.158;8.634;2023-06-24T05:44:49;11.73;;;8.93;;
21480;SDS011;10902;48.158;8.634;2023-06-24T05:47:41;11.18;;;8.77;;
21480;SDS011;10902;48.158;8.634;2023-06-24T05:50:28;10.75;;;8.23;;
21480;SDS011;10902;48.158;8.634;2023-06-24T05:53:19;10.60;;;8.85;;
21480;SDS011;10902;48.158;8.634;2023-06-24T05:56:10;9.55;;;7.78;;
21480;SDS011;10902;48.158;8.634;2023-06-24T05:59:01;10.18;;;8.23;;
21480;SDS011;10902;48.158;8.634;2023-06-24T06:01:52;11.40;;;8.45;;
21480;SDS011;10902;48.158;8.634;2023-06-24T06:04:52;9.45;;;7.90;;
21480;SDS011;10902;48.158;8.634;2023-06-24T06:07:40;10.43;;;8.30;;
21480;SDS011;10902;48.158;8.634;2023-06-24T06:10:33;11.38;;;7.90;;
21480;SDS011;10902;48.158;8.634;2023-06-24T06:13:26;9.50;;;7.60;;
21480;SDS011;10902;48.158;8.634;2023-06-24T06:16:17;8.85;;;6.53;;
21480;SDS011;10902;48.158;8.634;2023-06-24T06:19:04;9.05;;;6.82;;
21480;SDS011;10902;48.158;8.634;2023-06-24T06:21:50;10.07;;;6.72;;
21480;SDS011;10902;48.158;8.634;2023-06-24T06:24:37;8.95;;;6.00;;
21480;SDS011;10902;48.158;8.634;2023-06-24T06:27:27;7.47;;;5.82;;
21480;SDS011;10902;48.158;8.634;2023-06-24T06:30:14;8.93;;;6.22;;
21480;SDS011;10902;48.158;8.634;2023-06-24T06:33:01;9.05;;;5.57;;
21480;SDS011;10902;48.158;8.634;2023-06-24T06:35:47;8.27;;;5.88;;
21480;SDS011;10902;48.158;8.634;2023-06-24T06:38:35;7.55;;;5.57;;
21480;SDS011;10902;48.158;8.634;2023-06-24T06:41:21;8.05;;;5.20;;
21480;SDS011;10902;48.158;8.634;2023-06-24T06:44:09;7.57;;;5.32;;
21480;SDS011;10902;48.158;8.634;2023-06-24T06:46:56;8.13;;;5.35;;
21480;SDS011;10902;48.158;8.634;2023-06-24T06:49:43;7.25;;;5.28;;
21480;SDS011;10902;48.158;8.634;2023-06-24T06:52:59;8.07;;;5.72;;
21480;SDS011;10902;48.158;8.634;2023-06-24T06:55:52;7.22;;;5.55;;
21480;SDS011;10902;48.158;8.634;2023-06-24T06:58:44;7.15;;;4.88;;
21480;SDS011;10902;48.158;8.634;2023-06-24T07:01:30;6.72;;;4.70;;
21480;SDS011;10902;48.158;8.634;2023-06-24T07:04:19;7.40;;;4.40;;
21480;SDS011;10902;48.158;8.634;2023-06-24T07:07:05;6.75;;;4.25;;
21480;SDS011;10902;48.158;8.634;2023-06-24T07:09:51;7.00;;;4.50;;
21480;SDS011;10902;48.158;8.634;2023-06-24T07:12:37;8.15;;;4.70;;
21480;SDS011;10902;48.158;8.634;2023-06-24T07:15:26;6.57;;;5.00;;
21480;SDS011;10902;48.158;8.634;2023-06-24T07:18:12;8.60;;;4.63;;
21480;SDS011;10902;48.158;8.634;2023-06-24T07:20:59;6.65;;;4.47;;
21480;SDS011;10902;48.158;8.634;2023-06-24T07:23:45;6.28;;;4.05;;
21480;SDS011;10902;48.158;8.634;2023-06-24T07:26:31;6.07;;;3.85;;
21480;SDS011;10902;48.158;8.634;2023-06-24T07:29:17;6.50;;;3.63;;
21480;SDS011;10902;48.158;8.634;2023-06-24T07:32:03;6.63;;;3.45;;
21480;SDS011;10902;48.158;8.634;2023-06-24T07:34:50;5.78;;;3.40;;
21480;SDS011;10902;48.158;8.634;2023-06-24T07:37:36;6.45;;;3.38;;
21480;SDS011;10902;48.158;8.634;2023-06-24T07:40:22;6.72;;;3.83;;
21480;SDS011;10902;48.158;8.634;2023-06-24T07:43:10;5.95;;;3.85;;
21480;SDS011;10902;48.158;8.634;2023-06-24T07:45:56;7.85;;;4.13;;
21480;SDS011;10902;48.158;8.634;2023-06-24T07:48:42;7.75;;;3.60;;
21480;SDS011;10902;48.158;8.634;2023-06-24T07:51:28;5.97;;;3.75;;
21480;SDS011;10902;48.158;8.634;2023-06-24T07:54:14;5.35;;;3.58;;
21480;SDS011;10902;48.158;8.634;2023-06-24T07:57:09;6.07;;;3.80;;
21480;SDS011;10902;48.158;8.634;2023-06-24T07:59:55;5.47;;;3.30;;
21480;SDS011;10902;48.158;8.634;2023-06-24T08:02:49;5.82;;;3.25;;
21480;SDS011;10902;48.158;8.634;2023-06-24T08:05:35;6.03;;;3.60;;
21480;SDS011;10902;48.158;8.634;2023-06-24T08:08:24;6.53;;;3.85;;
21480;SDS011;10902;48.158;8.634;2023-06-24T08:11:10;5.40;;;3.35;;
21480;SDS011;10902;48.158;8.634;2023-06-24T08:13:59;5.18;;;3.20;;
21480;SDS011;10902;48.158;8.634;2023-06-24T08:16:45;8.15;;;3.13;;
21480;SDS011;10902;48.158;8.634;2023-06-24T08:19:30;5.40;;;3.40;;
21480;SDS011;10902;48.158;8.634;2023-06-24T08:22:16;6.47;;;3.30;;
21480;SDS011;10902;48.158;8.634;2023-06-24T08:25:02;5.68;;;3.17;;
21480;SDS011;10902;48.158;8.634;2023-06-24T08:34:36;5.35;;;3.35;;
21480;SDS011;10902;48.158;8.634;2023-06-24T08:37:21;5.05;;;3.35;;
21480;SDS011;10902;48.158;8.634;2023-06-24T08:40:10;5.20;;;3.30;;
21480;SDS011;10902;48.158;8.634;2023-06-24T08:42:56;5.55;;;3.20;;
21480;SDS011;10902;48.158;8.634;2023-06-24T08:45:43;5.45;;;3.33;;
21480;SDS011;10902;48.158;8.634;2023-06-24T08:48:30;6.65;;;3.35;;
21480;SDS011;10902;48.158;8.634;2023-06-24T08:51:24;7.13;;;3.40;;
21480;SDS011;10902;48.158;8.634;2023-06-24T08:54:14;5.40;;;3.08;;
21480;SDS011;10902;48.158;8.634;2023-06-24T08:57:04;5.32;;;3.20;;
21480;SDS011;10902;48.158;8.634;2023-06-24T08:59:51;5.00;;;3.08;;
21480;SDS011;10902;48.158;8.634;2023-06-24T09:02:47;5.05;;;3.00;;
21480;SDS011;10902;48.158;8.634;2023-06-24T09:05:33;5.82;;;3.40;;
21480;SDS011;10902;48.158;8.634;2023-06-24T09:08:25;5.13;;;3.50;;
21480;SDS011;10902;48.158;8.634;2023-06-24T09:11:11;6.22;;;3.25;;
21480;SDS011;10902;48.158;8.634;2023-06-24T09:13:57;4.43;;;2.67;;
21480;SDS011;10902;48.158;8.634;2023-06-24T09:17:02;9.25;;;3.70;;
21480;SDS011;10902;48.158;8.634;2023-06-24T09:20:14;5.13;;;3.00;;
21480;SDS011;10902;48.158;8.634;2023-06-24T09:23:29;5.05;;;3.30;;
21480;SDS011;10902;48.158;8.634;2023-06-24T09:26:49;5.25;;;2.95;;
21480;SDS011;10902;48.158;8.634;2023-06-24T09:29:35;5.60;;;3.78;;
21480;SDS011;10902;48.158;8.634;2023-06-24T09:32:31;6.95;;;3.10;;
21480;SDS011;10902;48.158;8.634;2023-06-24T09:35:21;4.60;;;2.90;;
21480;SDS011;10902;48.158;8.634;2023-06-24T09:38:11;4.90;;;2.90;;
21480;SDS011;10902;48.158;8.634;2023-06-24T09:41:03;5.35;;;3.08;;
21480;SDS011;10902;48.158;8.634;2023-06-24T09:43:50;4.50;;;2.55;;
21480;SDS011;10902;48.158;8.634;2023-06-24T09:46:36;4.88;;;2.97;;
21480;SDS011;10902;48.158;8.634;2023-06-24T09:49:26;5.47;;;2.80;;
21480;SDS011;10902;48.158;8.634;2023-06-24T09:52:12;6.72;;;3.70;;
21480;SDS011;10902;48.158;8.634;2023-06-24T09:55:01;4.70;;;2.90;;
21480;SDS011;10902;48.158;8.634;2023-06-24T09:57:50;4.53;;;2.90;;
21480;SDS011;10902;48.158;8.634;2023-06-24T10:00:38;5.65;;;2.80;;
21480;SDS011;10902;48.158;8.634;2023-06-24T10:03:24;4.60;;;2.95;;
21480;SDS011;10902;48.158;8.634;2023-06-24T10:06:10;4.40;;;2.70;;
21480;SDS011;10902;48.158;8.634;2023-06-24T10:08:56;4.90;;;2.88;;
21480;SDS011;10902;48.158;8.634;2023-06-24T10:11:44;5.28;;;2.80;;
21480;SDS011;10902;48.158;8.634;2023-06-24T10:14:31;4.68;;;2.75;;
21480;SDS011;10902;48.158;8.634;2023-06-24T10:17:17;5.00;;;3.05;;
21480;SDS011;10902;48.158;8.634;2023-06-24T10:20:03;5.38;;;3.00;;
21480;SDS011;10902;48.158;8.634;2023-06-24T10:22:51;4.85;;;3.28;;
21480;SDS011;10902;48.158;8.634;2023-06-24T10:25:45;5.72;;;2.88;;
21480;SDS011;10902;48.158;8.634;2023-06-24T10:29:04;4.80;;;2.92;;
21480;SDS011;10902;48.158;8.634;2023-06-24T10:32:38;4.97;;;3.22;;
21480;SDS011;10902;48.158;8.634;2023-06-24T10:35:41;4.40;;;2.90;;
21480;SDS011;10902;48.158;8.634;2023-06-24T10:38:31;5.53;;;2.80;;
21480;SDS011;10902;48.158;8.634;2023-06-24T10:52:24;4.05;;;2.70;;
21480;SDS011;10902;48.158;8.634;2023-06-24T10:55:12;4.18;;;2.42;;
21480;SDS011;10902;48.158;8.634;2023-06-24T10:58:10;4.35;;;2.83;;
21480;SDS011;10902;48.158;8.634;2023-06-24T11:01:10;4.72;;;2.95;;
21480;SDS011;10902;48.158;8.634;2023-06-24T11:04:03;4.47;;;2.60;;
21480;SDS011;10902;48.158;8.634;2023-06-24T11:07:18;3.80;;;2.40;;
21480;SDS011;10902;48.158;8.634;2023-06-24T11:13:52;4.32;;;2.72;;
21480;SDS011;10902;48.158;8.634;2023-06-24T11:16:45;4.20;;;2.88;;
21480;SDS011;10902;48.158;8.634;2023-06-24T11:19:47;5.93;;;2.80;;
21480;SDS011;10902;48.158;8.634;2023-06-24T11:22:36;6.05;;;2.85;;
21480;SDS011;10902;48.158;8.634;2023-06-24T11:25:28;4.45;;;2.88;;
21480;SDS011;10902;48.158;8.634;2023-06-24T11:28:18;5.00;;;2.95;;
21480;SDS011;10902;48.158;8.634;2023-06-24T11:31:09;4.60;;;2.63;;
21480;SDS011;10902;48.158;8.634;2023-06-24T11:33:57;4.70;;;3.00;;
21480;SDS011;10902;48.158;8.634;2023-06-24T11:36:46;4.30;;;2.50;;
21480;SDS011;10902;48.158;8.634;2023-06-24T11:39:34;5.25;;;2.70;;
21480;SDS011;10902;48.158;8.634;2023-06-24T11:42:23;5.32;;;2.70;;
21480;SDS011;10902;48.158;8.634;2023-06-24T11:45:13;5.78;;;2.85;;
21480;SDS011;10902;48.158;8.634;2023-06-24T11:48:02;4.22;;;2.58;;
21480;SDS011;10902;48.158;8.634;2023-06-24T11:50:53;4.78;;;2.63;;
21480;SDS011;10902;48.158;8.634;2023-06-24T11:53:41;3.90;;;2.58;;
21480;SDS011;10902;48.158;8.634;2023-06-24T11:56:36;4.25;;;2.65;;
21480;SDS011;10902;48.158;8.634;2023-06-24T11:59:23;4.72;;;2.95;;
21480;SDS011;10902;48.158;8.634;2023-06-24T12:02:14;4.43;;;2.85;;
21480;SDS011;10902;48.158;8.634;2023-06-24T12:05:01;5.03;;;2.40;;
21480;SDS011;10902;48.158;8.634;2023-06-24T12:07:48;4.10;;;2.80;;
21480;SDS011;10902;48.158;8.634;2023-06-24T12:10:34;4.70;;;2.88;;
21480;SDS011;10902;48.158;8.634;2023-06-24T12:13:21;4.32;;;2.70;;
21480;SDS011;10902;48.158;8.634;2023-06-24T12:16:07;4.60;;;2.58;;
21480;SDS011;10902;48.158;8.634;2023-06-24T12:18:53;4.63;;;2.70;;
21480;SDS011;10902;48.158;8.634;2023-06-24T12:21:39;4.90;;;2.60;;
21480;SDS011;10902;48.158;8.634;2023-06-24T12:24:25;5.78;;;3.25;;
21480;SDS011;10902;48.158;8.634;2023-06-24T12:27:11;4.28;;;2.88;;
21480;SDS011;10902;48.158;8.634;2023-06-24T12:29:57;3.88;;;2.33;;
21480;SDS011;10902;48.158;8.634;2023-06-24T12:32:43;4.20;;;2.70;;
21480;SDS011;10902;48.158;8.634;2023-06-24T12:35:36;4.07;;;2.70;;
21480;SDS011;10902;48.158;8.634;2023-06-24T12:38:27;4.43;;;2.67;;
21480;SDS011;10902;48.158;8.634;2023-06-24T12:41:14;4.70;;;2.47;;
21480;SDS011;10902;48.158;8.634;2023-06-24T12:44:33;3.90;;;2.13;;
21480;SDS011;10902;48.158;8.634;2023-06-24T12:47:20;7.13;;;2.75;;
21480;SDS011;10902;48.158;8.634;2023-06-24T12:50:07;4.40;;;2.72;;
21480;SDS011;10902;48.158;8.634;2023-06-24T12:52:54;3.88;;;2.40;;
21480;SDS011;10902;48.158;8.634;2023-06-24T12:55:42;3.55;;;2.25;;
21480;SDS011;10902;48.158;8.634;2023-06-24T12:58:35;4.22;;;2.47;;
21480;SDS011;10902;48.158;8.634;2023-06-24T13:01:43;4.00;;;2.60;;
21480;SDS011;10902;48.158;8.634;2023-06-24T13:04:30;3.70;;;2.33;;
21480;SDS011;10902;48.158;8.634;2023-06-24T13:07:20;4.47;;;2.80;;
21480;SDS011;10902;48.158;8.634;2023-06-24T13:10:09;4.43;;;2.90;;
21480;SDS011;10902;48.158;8.634;2023-06-24T13:13:16;4.30;;;2.75;;
21480;SDS011;10902;48.158;8.634;2023-06-24T13:16:15;3.78;;;2.33;;
21480;SDS011;10902;48.158;8.634;2023-06-24T13:19:01;5.13;;;2.58;;
21480;SDS011;10902;48.158;8.634;2023-06-24T13:21:47;4.97;;;2.47;;
21480;SDS011;10902;48.158;8.634;2023-06-24T13:24:33;5.07;;;2.90;;
21480;SDS011;10902;48.158;8.634;2023-06-24T13:27:56;6.45;;;2.63;;
21480;SDS011;10902;48.158;8.634;2023-06-24T13:30:46;3.97;;;2.20;;
21480;SDS011;10902;48.158;8.634;2023-06-24T13:33:32;5.30;;;2.83;;
21480;SDS011;10902;48.158;8.634;2023-06-24T13:36:30;5.45;;;2.63;;
21480;SDS011;10902;48.158;8.634;2023-06-24T13:39:25;4.53;;;2.50;;
21480;SDS011;10902;48.158;8.634;2023-06-24T13:42:14;4.00;;;2.53;;
21480;SDS011;10902;48.158;8.634;2023-06-24T13:45:29;3.70;;;2.30;;
21480;SDS011;10902;48.158;8.634;2023-06-24T13:48:19;4.10;;;2.70;;
21480;SDS011;10902;48.158;8.634;2023-06-24T13:51:21;5.20;;;2.60;;
21480;SDS011;10902;48.158;8.634;2023-06-24T13:54:07;5.70;;;2.60;;
21480;SDS011;10902;48.158;8.634;2023-06-24T13:57:18;4.32;;;2.75;;
21480;SDS011;10902;48.158;8.634;2023-06-24T14:13:11;3.60;;;2.15;;
21480;SDS011;10902;48.158;8.634;2023-06-24T14:16:00;5.05;;;2.80;;
21480;SDS011;10902;48.158;8.634;2023-06-24T14:18:49;5.57;;;2.92;;
21480;SDS011;10902;48.158;8.634;2023-06-24T14:28:44;4.10;;;2.60;;
21480;SDS011;10902;48.158;8.634;2023-06-24T14:33:15;5.00;;;2.65;;
21480;SDS011;10902;48.158;8.634;2023-06-24T14:36:24;5.07;;;2.67;;
21480;SDS011;10902;48.158;8.634;2023-06-24T14:39:16;3.78;;;2.33;;
21480;SDS011;10902;48.158;8.634;2023-06-24T14:50:04;4.78;;;2.60;;
21480;SDS011;10902;48.158;8.634;2023-06-24T14:52:58;7.80;;;5.47;;
21480;SDS011;10902;48.158;8.634;2023-06-24T16:22:30;4.78;;;2.72;;
21480;SDS011;10902;48.158;8.634;2023-06-24T16:34:24;4.50;;;2.90;;
21480;SDS011;10902;48.158;8.634;2023-06-24T16:45:20;5.50;;;2.92;;
21480;SDS011;10902;48.158;8.634;2023-06-24T17:00:05;5.70;;;2.92;;
21480;SDS011;10902;48.158;8.634;2023-06-24T17:03:09;4.40;;;2.63;;
21480;SDS011;10902;48.158;8.634;2023-06-24T17:11:03;5.18;;;3.40;;
21480;SDS011;10902;48.158;8.634;2023-06-24T17:13:57;4.60;;;3.08;;
21480;SDS011;10902;48.158;8.634;2023-06-24T17:17:11;5.53;;;3.70;;
21480;SDS011;10902;48.158;8.634;2023-06-24T17:20:44;4.70;;;3.20;;
21480;SDS011;10902;48.158;8.634;2023-06-24T17:46:28;5.78;;;3.03;;
21480;SDS011;10902;48.158;8.634;2023-06-24T17:49:59;4.60;;;2.95;;
21480;SDS011;10902;48.158;8.634;2023-06-24T17:52:45;5.45;;;3.10;;
21480;SDS011;10902;48.158;8.634;2023-06-24T17:55:31;5.60;;;2.80;;
21480;SDS011;10902;48.158;8.634;2023-06-24T17:58:20;4.57;;;3.10;;
21480;SDS011;10902;48.158;8.634;2023-06-24T18:01:06;6.70;;;3.53;;
21480;SDS011;10902;48.158;8.634;2023-06-24T18:03:59;5.30;;;3.22;;
21480;SDS011;10902;48.158;8.634;2023-06-24T18:06:45;6.05;;;3.17;;
21480;SDS011;10902;48.158;8.634;2023-06-24T18:09:31;5.40;;;3.08;;
21480;SDS011;10902;48.158;8.634;2023-06-24T18:12:17;5.18;;;3.17;;
21480;SDS011;10902;48.158;8.634;2023-06-24T18:15:03;5.90;;;3.67;;
21480;SDS011;10902;48.158;8.634;2023-06-24T18:17:49;5.30;;;3.38;;
21480;SDS011;10902;48.158;8.634;2023-06-24T18:20:35;7.00;;;3.58;;
21480;SDS011;10902;48.158;8.634;2023-06-24T18:23:21;5.60;;;3.38;;
21480;SDS011;10902;48.158;8.634;2023-06-24T18:26:07;5.07;;;3.38;;
21480;SDS011;10902;48.158;8.634;2023-06-24T18:28:53;5.93;;;3.70;;
21480;SDS011;10902;48.158;8.634;2023-06-24T18:31:39;4.93;;;3.13;;
21480;SDS011;10902;48.158;8.634;2023-06-24T18:34:27;5.07;;;3.45;;
21480;SDS011;10902;48.158;8.634;2023-06-24T18:37:14;5.55;;;3.55;;
21480;SDS011;10902;48.158;8.634;2023-06-24T18:40:00;4.70;;;3.00;;
21480;SDS011;10902;48.158;8.634;2023-06-24T18:42:48;7.05;;;3.55;;
21480;SDS011;10902;48.158;8.634;2023-06-24T18:45:34;4.82;;;3.25;;
21480;SDS011;10902;48.158;8.634;2023-06-24T18:48:20;5.40;;;3.60;;
21480;SDS011;10902;48.158;8.634;2023-06-24T18:51:06;5.68;;;3.30;;
21480;SDS011;10902;48.158;8.634;2023-06-24T18:53:52;5.93;;;3.47;;
21480;SDS011;10902;48.158;8.634;2023-06-24T18:56:38;6.20;;;3.40;;
21480;SDS011;10902;48.158;8.634;2023-06-24T18:59:24;5.22;;;3.75;;
21480;SDS011;10902;48.158;8.634;2023-06-24T19:02:10;5.38;;;3.50;;
21480;SDS011;10902;48.158;8.634;2023-06-24T19:04:56;7.22;;;3.75;;
21480;SDS011;10902;48.158;8.634;2023-06-24T19:07:51;5.40;;;3.20;;
21480;SDS011;10902;48.158;8.634;2023-06-24T19:10:37;8.27;;;4.97;;
21480;SDS011;10902;48.158;8.634;2023-06-24T19:13:23;5.05;;;3.47;;
21480;SDS011;10902;48.158;8.634;2023-06-24T19:16:09;5.55;;;3.63;;
21480;SDS011;10902;48.158;8.634;2023-06-24T19:18:55;6.22;;;3.45;;
21480;SDS011;10902;48.158;8.634;2023-06-24T19:21:41;6.45;;;3.60;;
21480;SDS011;10902;48.158;8.634;2023-06-24T19:24:27;5.47;;;3.40;;
21480;SDS011;10902;48.158;8.634;2023-06-24T19:27:13;5.72;;;3.35;;
21480;SDS011;10902;48.158;8.634;2023-06-24T19:29:59;5.20;;;3.40;;
21480;SDS011;10902;48.158;8.634;2023-06-24T19:32:45;5.43;;;3.60;;
21480;SDS011;10902;48.158;8.634;2023-06-24T19:35:30;5.80;;;3.33;;
21480;SDS011;10902;48.158;8.634;2023-06-24T19:38:16;6.05;;;3.35;;
21480;SDS011;10902;48.158;8.634;2023-06-24T19:41:02;5.05;;;3.15;;
21480;SDS011;10902;48.158;8.634;2023-06-24T19:43:48;5.53;;;3.50;;
21480;SDS011;10902;48.158;8.634;2023-06-24T19:46:37;6.30;;;3.40;;
21480;SDS011;10902;48.158;8.634;2023-06-24T19:49:23;5.00;;;3.20;;
21480;SDS011;10902;48.158;8.634;2023-06-24T19:52:09;5.20;;;3.63;;
21480;SDS011;10902;48.158;8.634;2023-06-24T19:54:57;6.20;;;3.50;;
21480;SDS011;10902;48.158;8.634;2023-06-24T19:57:44;5.05;;;3.25;;
21480;SDS011;10902;48.158;8.634;2023-06-24T20:00:32;5.13;;;3.13;;
21480;SDS011;10902;48.158;8.634;2023-06-24T20:03:19;5.40;;;3.83;;
21480;SDS011;10902;48.158;8.634;2023-06-24T20:06:05;5.90;;;3.92;;
21480;SDS011;10902;48.158;8.634;2023-06-24T20:08:51;6.15;;;4.22;;
21480;SDS011;10902;48.158;8.634;2023-06-24T20:11:37;6.03;;;3.58;;
21480;SDS011;10902;48.158;8.634;2023-06-24T20:14:25;6.60;;;3.22;;
21480;SDS011;10902;48.158;8.634;2023-06-24T20:17:14;7.22;;;3.78;;